Terminal Aerodrome Forecast
Issued by NWS

Home | Current Version | Previous Version | Text Only | Print | Product List | Glossary On
Versions: 1 2 3 4 5 6 7 8 9 10 11 12 13
000
FTUS46 KSGX 251729
TAFCRQ
TAF
KCRQ 251729Z 2518/2618 VRB05KT P6SM FEW200
     FM252100 24009KT P6SM FEW035 BKN200
     FM260000 VRB04KT P6SM SCT025 BKN035 BKN100
     FM260900 11004KT P6SM VCSH SCT025 BKN035
     FM261200 11005KT P6SM -SHRA BKN025 OVC035
     FM261700 13007KT P6SM VCSH SCT025 BKN035=

USA.gov is the U.S. government's official web portal to all federal, state and local government web resources and services.